sensor_id;sensor_type;location;lat;lon;timestamp;P1;durP1;ratioP1;P2;durP2;ratioP2
29700;SDS011;57917;51.380;-0.176;2023-09-18T00:00:33;4.78;;;1.20;;
29700;SDS011;57917;51.380;-0.176;2023-09-18T00:06:22;2.97;;;1.02;;
29700;SDS011;57917;51.380;-0.176;2023-09-18T00:12:11;1.65;;;0.95;;
29700;SDS011;57917;51.380;-0.176;2023-09-18T00:17:58;1.65;;;0.90;;
29700;SDS011;57917;51.380;-0.176;2023-09-18T00:23:45;1.65;;;1.08;;
29700;SDS011;57917;51.380;-0.176;2023-09-18T00:29:35;2.03;;;1.05;;
29700;SDS011;57917;51.380;-0.176;2023-09-18T00:35:22;3.55;;;1.00;;
29700;SDS011;57917;51.380;-0.176;2023-09-18T00:41:10;2.95;;;1.00;;
29700;SDS011;57917;51.380;-0.176;2023-09-18T00:46:57;3.45;;;1.00;;
29700;SDS011;57917;51.380;-0.176;2023-09-18T00:52:49;4.47;;;1.60;;
29700;SDS011;57917;51.380;-0.176;2023-09-18T00:58:37;3.33;;;0.82;;
29700;SDS011;57917;51.380;-0.176;2023-09-18T01:04:24;4.78;;;1.27;;
29700;SDS011;57917;51.380;-0.176;2023-09-18T01:10:15;4.68;;;1.25;;
29700;SDS011;57917;51.380;-0.176;2023-09-18T01:16:17;6.43;;;1.30;;
29700;SDS011;57917;51.380;-0.176;2023-09-18T01:22:15;6.25;;;1.50;;
29700;SDS011;57917;51.380;-0.176;2023-09-18T01:28:05;2.08;;;1.27;;
29700;SDS011;57917;51.380;-0.176;2023-09-18T01:33:54;4.40;;;1.13;;
29700;SDS011;57917;51.380;-0.176;2023-09-18T01:39:43;7.55;;;1.45;;
29700;SDS011;57917;51.380;-0.176;2023-09-18T01:45:32;2.15;;;1.02;;
29700;SDS011;57917;51.380;-0.176;2023-09-18T01:51:19;8.93;;;1.85;;
29700;SDS011;57917;51.380;-0.176;2023-09-18T01:57:06;7.20;;;1.52;;
29700;SDS011;57917;51.380;-0.176;2023-09-18T02:02:58;5.43;;;1.60;;
29700;SDS011;57917;51.380;-0.176;2023-09-18T02:09:05;7.13;;;1.45;;
29700;SDS011;57917;51.380;-0.176;2023-09-18T02:14:56;9.00;;;1.52;;
29700;SDS011;57917;51.380;-0.176;2023-09-18T02:20:53;8.82;;;1.42;;
29700;SDS011;57917;51.380;-0.176;2023-09-18T02:26:47;17.00;;;1.80;;
29700;SDS011;57917;51.380;-0.176;2023-09-18T02:32:34;4.47;;;1.20;;
29700;SDS011;57917;51.380;-0.176;2023-09-18T02:38:23;10.48;;;1.70;;
29700;SDS011;57917;51.380;-0.176;2023-09-18T02:44:10;8.85;;;1.70;;
29700;SDS011;57917;51.380;-0.176;2023-09-18T02:49:57;5.35;;;1.70;;
29700;SDS011;57917;51.380;-0.176;2023-09-18T02:55:44;7.55;;;1.90;;
29700;SDS011;57917;51.380;-0.176;2023-09-18T03:01:31;8.20;;;1.75;;
29700;SDS011;57917;51.380;-0.176;2023-09-18T03:07:19;7.38;;;1.73;;
29700;SDS011;57917;51.380;-0.176;2023-09-18T03:13:32;13.20;;;1.80;;
29700;SDS011;57917;51.380;-0.176;2023-09-18T03:19:47;5.65;;;1.70;;
29700;SDS011;57917;51.380;-0.176;2023-09-18T03:25:36;5.70;;;1.83;;
29700;SDS011;57917;51.380;-0.176;2023-09-18T03:31:38;7.68;;;1.70;;
29700;SDS011;57917;51.380;-0.176;2023-09-18T03:37:25;12.55;;;3.17;;
29700;SDS011;57917;51.380;-0.176;2023-09-18T03:43:12;10.55;;;2.20;;
29700;SDS011;57917;51.380;-0.176;2023-09-18T03:49:02;10.82;;;2.60;;
29700;SDS011;57917;51.380;-0.176;2023-09-18T03:54:53;10.52;;;2.38;;
29700;SDS011;57917;51.380;-0.176;2023-09-18T04:00:52;4.18;;;1.92;;
29700;SDS011;57917;51.380;-0.176;2023-09-18T04:07:05;16.73;;;2.70;;
29700;SDS011;57917;51.380;-0.176;2023-09-18T04:19:46;6.90;;;2.40;;
29700;SDS011;57917;51.380;-0.176;2023-09-18T04:25:50;6.13;;;2.60;;
29700;SDS011;57917;51.380;-0.176;2023-09-18T04:32:11;14.45;;;3.00;;
29700;SDS011;57917;51.380;-0.176;2023-09-18T04:38:01;4.43;;;2.08;;
29700;SDS011;57917;51.380;-0.176;2023-09-18T04:43:56;11.15;;;2.95;;
29700;SDS011;57917;51.380;-0.176;2023-09-18T04:49:59;10.35;;;2.70;;
29700;SDS011;57917;51.380;-0.176;2023-09-18T04:56:00;8.15;;;2.38;;
29700;SDS011;57917;51.380;-0.176;2023-09-18T05:01:58;5.57;;;2.70;;
29700;SDS011;57917;51.380;-0.176;2023-09-18T05:07:45;9.80;;;2.80;;
29700;SDS011;57917;51.380;-0.176;2023-09-18T05:13:42;10.98;;;2.80;;
29700;SDS011;57917;51.380;-0.176;2023-09-18T05:19:29;11.85;;;2.92;;
29700;SDS011;57917;51.380;-0.176;2023-09-18T05:25:19;6.28;;;3.05;;
29700;SDS011;57917;51.380;-0.176;2023-09-18T05:31:18;12.43;;;3.80;;
29700;SDS011;57917;51.380;-0.176;2023-09-18T05:37:08;8.50;;;3.50;;
29700;SDS011;57917;51.380;-0.176;2023-09-18T05:42:58;11.50;;;3.60;;
29700;SDS011;57917;51.380;-0.176;2023-09-18T05:48:53;11.85;;;3.60;;
29700;SDS011;57917;51.380;-0.176;2023-09-18T05:54:50;11.75;;;4.18;;
29700;SDS011;57917;51.380;-0.176;2023-09-18T06:00:38;6.68;;;3.72;;
29700;SDS011;57917;51.380;-0.176;2023-09-18T06:06:25;12.10;;;4.18;;
29700;SDS011;57917;51.380;-0.176;2023-09-18T06:12:13;5.32;;;3.28;;
29700;SDS011;57917;51.380;-0.176;2023-09-18T06:18:01;10.93;;;3.85;;
29700;SDS011;57917;51.380;-0.176;2023-09-18T06:23:52;5.40;;;2.97;;
29700;SDS011;57917;51.380;-0.176;2023-09-18T06:58:06;5.55;;;2.72;;
29700;SDS011;57917;51.380;-0.176;2023-09-18T07:30:46;6.10;;;2.60;;
29700;SDS011;57917;51.380;-0.176;2023-09-18T07:45:08;8.13;;;2.65;;
29700;SDS011;57917;51.380;-0.176;2023-09-18T07:50:56;3.85;;;1.77;;
29700;SDS011;57917;51.380;-0.176;2023-09-18T08:09:26;3.67;;;1.90;;
29700;SDS011;57917;51.380;-0.176;2023-09-18T08:15:40;7.80;;;1.83;;
29700;SDS011;57917;51.380;-0.176;2023-09-18T08:21:39;3.70;;;2.08;;
29700;SDS011;57917;51.380;-0.176;2023-09-18T08:28:10;6.60;;;1.92;;
29700;SDS011;57917;51.380;-0.176;2023-09-18T08:34:02;8.85;;;1.90;;
29700;SDS011;57917;51.380;-0.176;2023-09-18T08:39:53;6.05;;;2.00;;
29700;SDS011;57917;51.380;-0.176;2023-09-18T08:46:04;9.40;;;2.15;;
29700;SDS011;57917;51.380;-0.176;2023-09-18T08:52:07;3.17;;;2.03;;
29700;SDS011;57917;51.380;-0.176;2023-09-18T08:57:57;3.25;;;1.83;;
29700;SDS011;57917;51.380;-0.176;2023-09-18T09:04:22;7.45;;;2.65;;
29700;SDS011;57917;51.380;-0.176;2023-09-18T09:10:26;7.93;;;1.73;;
29700;SDS011;57917;51.380;-0.176;2023-09-18T09:16:24;6.55;;;1.67;;
29700;SDS011;57917;51.380;-0.176;2023-09-18T09:22:21;10.47;;;2.20;;
29700;SDS011;57917;51.380;-0.176;2023-09-18T09:28:16;5.60;;;1.13;;
29700;SDS011;57917;51.380;-0.176;2023-09-18T09:34:31;6.70;;;1.20;;
29700;SDS011;57917;51.380;-0.176;2023-09-18T09:40:33;9.65;;;1.15;;
29700;SDS011;57917;51.380;-0.176;2023-09-18T09:52:18;11.43;;;1.10;;
29700;SDS011;57917;51.380;-0.176;2023-09-18T09:58:10;2.53;;;0.70;;
29700;SDS011;57917;51.380;-0.176;2023-09-18T10:04:12;2.35;;;0.88;;
29700;SDS011;57917;51.380;-0.176;2023-09-18T10:10:04;2.88;;;0.80;;
29700;SDS011;57917;51.380;-0.176;2023-09-18T10:15:52;3.50;;;0.93;;
29700;SDS011;57917;51.380;-0.176;2023-09-18T10:27:47;6.72;;;1.30;;
29700;SDS011;57917;51.380;-0.176;2023-09-18T10:33:38;1.95;;;0.80;;
29700;SDS011;57917;51.380;-0.176;2023-09-18T10:39:30;2.95;;;0.65;;
29700;SDS011;57917;51.380;-0.176;2023-09-18T10:45:18;1.15;;;0.52;;
29700;SDS011;57917;51.380;-0.176;2023-09-18T10:51:14;0.55;;;0.40;;
29700;SDS011;57917;51.380;-0.176;2023-09-18T10:57:01;1.95;;;0.68;;
29700;SDS011;57917;51.380;-0.176;2023-09-18T11:02:50;1.30;;;0.65;;
29700;SDS011;57917;51.380;-0.176;2023-09-18T11:15:26;2.75;;;1.05;;
29700;SDS011;57917;51.380;-0.176;2023-09-18T11:21:35;1.85;;;0.50;;
29700;SDS011;57917;51.380;-0.176;2023-09-18T11:27:24;1.52;;;0.63;;
29700;SDS011;57917;51.380;-0.176;2023-09-18T11:33:13;4.05;;;0.60;;
29700;SDS011;57917;51.380;-0.176;2023-09-18T11:39:01;1.73;;;0.60;;
29700;SDS011;57917;51.380;-0.176;2023-09-18T11:45:04;0.80;;;0.52;;
29700;SDS011;57917;51.380;-0.176;2023-09-18T12:04:33;2.88;;;0.50;;
29700;SDS011;57917;51.380;-0.176;2023-09-18T12:10:23;0.50;;;0.47;;
29700;SDS011;57917;51.380;-0.176;2023-09-18T12:16:13;1.75;;;0.60;;
29700;SDS011;57917;51.380;-0.176;2023-09-18T12:22:12;2.15;;;0.80;;
29700;SDS011;57917;51.380;-0.176;2023-09-18T12:28:18;1.75;;;0.90;;
29700;SDS011;57917;51.380;-0.176;2023-09-18T12:34:13;1.45;;;0.60;;
29700;SDS011;57917;51.380;-0.176;2023-09-18T12:40:08;1.33;;;0.70;;
29700;SDS011;57917;51.380;-0.176;2023-09-18T12:46:17;6.85;;;0.90;;
29700;SDS011;57917;51.380;-0.176;2023-09-18T12:52:11;0.68;;;0.52;;
29700;SDS011;57917;51.380;-0.176;2023-09-18T12:58:05;2.42;;;1.23;;
29700;SDS011;57917;51.380;-0.176;2023-09-18T13:03:54;3.00;;;0.80;;
29700;SDS011;57917;51.380;-0.176;2023-09-18T13:10:03;3.08;;;0.80;;
29700;SDS011;57917;51.380;-0.176;2023-09-18T13:15:59;4.07;;;0.75;;
29700;SDS011;57917;51.380;-0.176;2023-09-18T13:21:50;2.10;;;0.77;;
29700;SDS011;57917;51.380;-0.176;2023-09-18T13:27:42;2.10;;;0.77;;
29700;SDS011;57917;51.380;-0.176;2023-09-18T13:33:29;6.63;;;1.20;;
29700;SDS011;57917;51.380;-0.176;2023-09-18T13:39:23;1.55;;;0.93;;
29700;SDS011;57917;51.380;-0.176;2023-09-18T13:45:11;1.00;;;0.90;;
29700;SDS011;57917;51.380;-0.176;2023-09-18T13:51:07;6.45;;;1.35;;
29700;SDS011;57917;51.380;-0.176;2023-09-18T13:57:23;1.10;;;0.73;;
29700;SDS011;57917;51.380;-0.176;2023-09-18T14:03:32;4.38;;;1.58;;
29700;SDS011;57917;51.380;-0.176;2023-09-18T14:09:41;2.45;;;1.30;;
29700;SDS011;57917;51.380;-0.176;2023-09-18T14:15:33;2.70;;;0.90;;
29700;SDS011;57917;51.380;-0.176;2023-09-18T14:21:47;2.88;;;0.80;;
29700;SDS011;57917;51.380;-0.176;2023-09-18T14:27:45;1.90;;;0.90;;
29700;SDS011;57917;51.380;-0.176;2023-09-18T14:34:15;1.42;;;0.70;;
29700;SDS011;57917;51.380;-0.176;2023-09-18T14:40:05;1.55;;;0.93;;
29700;SDS011;57917;51.380;-0.176;2023-09-18T14:46:11;2.38;;;1.13;;
29700;SDS011;57917;51.380;-0.176;2023-09-18T14:52:14;1.02;;;0.60;;
29700;SDS011;57917;51.380;-0.176;2023-09-18T14:58:11;0.97;;;0.60;;
29700;SDS011;57917;51.380;-0.176;2023-09-18T15:04:06;1.58;;;0.60;;
29700;SDS011;57917;51.380;-0.176;2023-09-18T15:10:08;0.80;;;0.40;;
29700;SDS011;57917;51.380;-0.176;2023-09-18T15:16:04;0.77;;;0.50;;
29700;SDS011;57917;51.380;-0.176;2023-09-18T15:21:53;1.55;;;0.60;;
29700;SDS011;57917;51.380;-0.176;2023-09-18T15:27:42;2.78;;;1.00;;
29700;SDS011;57917;51.380;-0.176;2023-09-18T15:54:51;1.38;;;0.47;;
29700;SDS011;57917;51.380;-0.176;2023-09-18T16:00:40;1.38;;;0.30;;
29700;SDS011;57917;51.380;-0.176;2023-09-18T16:06:29;1.15;;;0.60;;
29700;SDS011;57917;51.380;-0.176;2023-09-18T16:12:18;2.05;;;0.50;;
29700;SDS011;57917;51.380;-0.176;2023-09-18T16:18:11;2.25;;;0.70;;
29700;SDS011;57917;51.380;-0.176;2023-09-18T16:24:10;0.93;;;0.60;;
29700;SDS011;57917;51.380;-0.176;2023-09-18T16:30:10;1.75;;;0.50;;
29700;SDS011;57917;51.380;-0.176;2023-09-18T16:36:07;5.85;;;1.50;;
29700;SDS011;57917;51.380;-0.176;2023-09-18T16:42:15;1.77;;;0.70;;
29700;SDS011;57917;51.380;-0.176;2023-09-18T16:48:34;3.00;;;0.85;;
29700;SDS011;57917;51.380;-0.176;2023-09-18T16:54:34;3.03;;;0.80;;
29700;SDS011;57917;51.380;-0.176;2023-09-18T17:00:31;1.13;;;0.43;;
29700;SDS011;57917;51.380;-0.176;2023-09-18T17:06:20;2.95;;;1.27;;
29700;SDS011;57917;51.380;-0.176;2023-09-18T17:12:14;5.68;;;0.90;;
29700;SDS011;57917;51.380;-0.176;2023-09-18T17:18:11;2.45;;;0.80;;
29700;SDS011;57917;51.380;-0.176;2023-09-18T17:24:04;5.65;;;0.88;;
29700;SDS011;57917;51.380;-0.176;2023-09-18T17:29:53;3.83;;;1.17;;
29700;SDS011;57917;51.380;-0.176;2023-09-18T17:35:45;8.02;;;1.25;;
29700;SDS011;57917;51.380;-0.176;2023-09-18T17:41:34;6.97;;;1.20;;
29700;SDS011;57917;51.380;-0.176;2023-09-18T17:47:21;12.43;;;1.65;;
29700;SDS011;57917;51.380;-0.176;2023-09-18T17:53:20;3.55;;;0.80;;
29700;SDS011;57917;51.380;-0.176;2023-09-18T17:59:07;2.22;;;0.88;;
29700;SDS011;57917;51.380;-0.176;2023-09-18T18:04:58;7.13;;;1.08;;
29700;SDS011;57917;51.380;-0.176;2023-09-18T18:10:49;9.35;;;1.23;;
29700;SDS011;57917;51.380;-0.176;2023-09-18T18:16:36;8.88;;;1.23;;
29700;SDS011;57917;51.380;-0.176;2023-09-18T18:22:32;11.55;;;1.48;;
29700;SDS011;57917;51.380;-0.176;2023-09-18T18:28:24;2.35;;;1.20;;
29700;SDS011;57917;51.380;-0.176;2023-09-18T18:34:13;6.43;;;1.10;;
29700;SDS011;57917;51.380;-0.176;2023-09-18T18:40:00;9.23;;;1.85;;
29700;SDS011;57917;51.380;-0.176;2023-09-18T18:45:50;12.93;;;1.35;;
29700;SDS011;57917;51.380;-0.176;2023-09-18T18:51:48;7.90;;;1.73;;
29700;SDS011;57917;51.380;-0.176;2023-09-18T18:58:23;5.18;;;1.00;;
29700;SDS011;57917;51.380;-0.176;2023-09-18T19:04:23;13.80;;;1.85;;
29700;SDS011;57917;51.380;-0.176;2023-09-18T19:10:14;15.07;;;1.70;;
29700;SDS011;57917;51.380;-0.176;2023-09-18T19:16:11;6.88;;;1.80;;
29700;SDS011;57917;51.380;-0.176;2023-09-18T19:21:58;7.18;;;1.38;;
29700;SDS011;57917;51.380;-0.176;2023-09-18T19:27:46;4.75;;;1.52;;
29700;SDS011;57917;51.380;-0.176;2023-09-18T19:33:33;19.10;;;1.58;;
29700;SDS011;57917;51.380;-0.176;2023-09-18T19:39:26;7.50;;;1.65;;
29700;SDS011;57917;51.380;-0.176;2023-09-18T19:45:16;10.00;;;1.67;;
29700;SDS011;57917;51.380;-0.176;2023-09-18T19:51:03;9.32;;;1.58;;
29700;SDS011;57917;51.380;-0.176;2023-09-18T19:56:51;12.18;;;2.60;;
29700;SDS011;57917;51.380;-0.176;2023-09-18T20:02:46;8.52;;;1.45;;
29700;SDS011;57917;51.380;-0.176;2023-09-18T20:08:34;6.63;;;1.10;;
29700;SDS011;57917;51.380;-0.176;2023-09-18T20:14:21;12.90;;;1.38;;
29700;SDS011;57917;51.380;-0.176;2023-09-18T20:20:17;6.32;;;1.38;;
29700;SDS011;57917;51.380;-0.176;2023-09-18T20:26:04;5.45;;;1.30;;
29700;SDS011;57917;51.380;-0.176;2023-09-18T20:31:52;4.82;;;1.10;;
29700;SDS011;57917;51.380;-0.176;2023-09-18T20:37:39;5.35;;;1.33;;
29700;SDS011;57917;51.380;-0.176;2023-09-18T20:43:29;6.07;;;1.40;;
29700;SDS011;57917;51.380;-0.176;2023-09-18T20:49:23;9.27;;;1.30;;
29700;SDS011;57917;51.380;-0.176;2023-09-18T20:55:11;10.38;;;1.45;;
29700;SDS011;57917;51.380;-0.176;2023-09-18T21:01:06;5.38;;;1.15;;
29700;SDS011;57917;51.380;-0.176;2023-09-18T21:06:54;9.15;;;0.90;;
29700;SDS011;57917;51.380;-0.176;2023-09-18T21:12:41;11.15;;;1.45;;
29700;SDS011;57917;51.380;-0.176;2023-09-18T21:18:29;4.90;;;1.35;;
29700;SDS011;57917;51.380;-0.176;2023-09-18T21:24:18;7.30;;;1.88;;
29700;SDS011;57917;51.380;-0.176;2023-09-18T21:30:11;18.48;;;1.73;;
29700;SDS011;57917;51.380;-0.176;2023-09-18T21:36:00;7.05;;;1.65;;
29700;SDS011;57917;51.380;-0.176;2023-09-18T21:41:52;10.25;;;1.50;;
29700;SDS011;57917;51.380;-0.176;2023-09-18T21:47:55;11.70;;;1.58;;
29700;SDS011;57917;51.380;-0.176;2023-09-18T21:53:48;7.28;;;1.00;;
29700;SDS011;57917;51.380;-0.176;2023-09-18T21:59:45;6.07;;;1.58;;
29700;SDS011;57917;51.380;-0.176;2023-09-18T22:05:32;7.32;;;0.95;;
29700;SDS011;57917;51.380;-0.176;2023-09-18T22:11:24;5.43;;;1.13;;
29700;SDS011;57917;51.380;-0.176;2023-09-18T22:17:11;2.92;;;1.08;;
29700;SDS011;57917;51.380;-0.176;2023-09-18T22:22:59;8.10;;;0.95;;
29700;SDS011;57917;51.380;-0.176;2023-09-18T22:28:56;4.57;;;1.38;;
29700;SDS011;57917;51.380;-0.176;2023-09-18T22:34:43;5.18;;;1.05;;
29700;SDS011;57917;51.380;-0.176;2023-09-18T22:58:35;2.92;;;0.90;;
29700;SDS011;57917;51.380;-0.176;2023-09-18T23:04:28;3.60;;;0.90;;
29700;SDS011;57917;51.380;-0.176;2023-09-18T23:10:16;4.93;;;1.23;;
29700;SDS011;57917;51.380;-0.176;2023-09-18T23:16:08;5.75;;;0.95;;
29700;SDS011;57917;51.380;-0.176;2023-09-18T23:21:58;4.13;;;1.08;;
29700;SDS011;57917;51.380;-0.176;2023-09-18T23:27:47;6.32;;;0.95;;
29700;SDS011;57917;51.380;-0.176;2023-09-18T23:33:40;11.27;;;1.70;;
29700;SDS011;57917;51.380;-0.176;2023-09-18T23:39:42;4.70;;;1.00;;
29700;SDS011;57917;51.380;-0.176;2023-09-18T23:45:37;3.92;;;0.85;;
29700;SDS011;57917;51.380;-0.176;2023-09-18T23:51:28;9.52;;;1.15;;
29700;SDS011;57917;51.380;-0.176;2023-09-18T23:57:16;5.30;;;1.15;;
